Ariel, Mississippi
Current Conditions -  °F | °C
As of 8:09 AM on Monday 24 Nov 2014 (Local Time) from KMCB Reporting Station
Scattered Clouds Scattered Clouds  
Wind Chill: 58°   Ceiling: Unl
Heat Index: 58°   Visibility: 10mi
Dew Point: 51°   Wind: 15mph
Humidity: 78%   Direction: 310°NW
Pressure: 29.88"   Gusts: NA
Location:  31.1819°N, 90.9008°W
Report Text: KMCB 241409Z AUTO 31013KT 10SM SCT019 14/11 A2988 RMK AO2 T01440106
Loading
Personal Weather Stations






























Interactive Weather Map New forecast layout! Learn more

10-Day Weather Forecast

Advertisements
Track Severe Weather on mobile